台中市, 台灣

2014年12月20日 00時25分 (GMT +0800)
WUCHIA OBSERVAT | Change Station
CLOSE
Current Station
機場
Location: WUCHIA OBSERVAT,
海拔: 16 ft
附近的氣象站

海拔 16 ft 24.26 °N, 120.62 °E | Updated 25 minutes ago

Light Rain
微雨
57 °F
感覺像 57 °F
6
風 變化 風 來自 東北

今日
高 -- | 低 -- °F
--% 降水機率
昨天
高 -- | 低 -- °F
Precip. -- 英寸
6:35 AM 5:14 PM
殘月, 7% visible
氣壓 30.15 英寸
能見度 4.3 英里
多雲 多雲時晴 600 ft
多雲 2000 ft
多雲 5000 ft
露點 55 °F
濕度 94%
降雨量 0.00 英寸
積雪深度 不適用。
紫外線 0 / 12
花粉 不適用。
空氣質素 不適用。
Flu Activity 不適用。
METAR RCMQ 191600Z 05005KT 7000 -RA SCT006 BKN020 BKN050 14/13 Q1021 RMK A3015

More Conditions Fewer Conditions

氣壓 30.15 英寸
能見度 4.3 英里
多雲 多雲時晴 600 ft
多雲 2000 ft
多雲 5000 ft
露點 55 °F
濕度 94%
降雨量 0.00 英寸
積雪深度 不適用。
紫外線 0 / 12
花粉 不適用。
空氣質素 不適用。
Flu Activity 不適用。
METAR RCMQ 191600Z 05005KT 7000 -RA SCT006 BKN020 BKN050 14/13 Q1021 RMK A3015

More Conditions Fewer Conditions

10-Day Weather Forecast

Almanac

天文

Dec. 20, 2014 昇起 降落
實際時間
民用曙暮光
航海曙暮光
天文學微明
月亮
可見光的長度
白晝時間
Tomorrow will be .
, % of the Moon is Illuminated

今天之最

國家高溫 國家低溫

Community

WunderPhotos

Upload Photos

1,779,005 照片已上傳!

WunderBlogs® & News

Nearby

空氣質素

  空氣質素 空氣質素指數 污染物
Not available.

積雪量

Station 深度 海拔

地震活動

城市 距離 時間和日期
顯示的最小幅度是2.5。

沿海水溫

地點 溫度

附近的氣象站